createdAt,value
2019-04-25T00:00:07.702Z,1001.58
2019-04-25T00:01:07.724Z,1001.64
2019-04-25T00:02:07.744Z,1001.60
2019-04-25T00:03:07.769Z,1001.64
2019-04-25T00:04:07.785Z,1001.71
2019-04-25T00:05:07.823Z,1001.62
2019-04-25T00:06:07.896Z,1001.54
2019-04-25T00:07:07.892Z,1001.54
2019-04-25T00:08:07.901Z,1001.62
2019-04-25T00:09:07.952Z,1001.71
2019-04-25T00:10:07.946Z,1001.62
2019-04-25T00:11:07.954Z,1001.69
2019-04-25T00:12:07.955Z,1001.75
2019-04-25T00:13:07.976Z,1001.74
2019-04-25T00:14:07.993Z,1001.74
2019-04-25T00:15:08.014Z,1001.70
2019-04-25T00:16:08.036Z,1001.67
2019-04-25T00:17:08.058Z,1001.68
2019-04-25T00:18:08.075Z,1001.66
2019-04-25T00:19:08.097Z,1001.73
2019-04-25T00:20:08.128Z,1001.87
2019-04-25T00:21:08.138Z,1001.89
2019-04-25T00:22:08.159Z,1001.85
2019-04-25T00:23:08.181Z,1001.89
2019-04-25T00:24:08.200Z,1001.84
2019-04-25T00:25:15.900Z,1001.83
2019-04-25T00:26:08.242Z,1001.74
2019-04-25T00:27:08.264Z,1001.71
2019-04-25T00:28:08.282Z,1001.67
2019-04-25T00:29:08.306Z,1001.62
2019-04-25T00:30:08.322Z,1001.63
2019-04-25T00:31:08.344Z,1001.65
2019-04-25T00:32:08.367Z,1001.68
2019-04-25T00:33:08.386Z,1001.80
2019-04-25T00:34:08.406Z,1001.78
2019-04-25T00:35:08.426Z,1001.79
2019-04-25T00:36:08.445Z,1001.78
2019-04-25T00:37:08.467Z,1001.76
2019-04-25T00:38:08.487Z,1001.75
2019-04-25T00:39:08.508Z,1001.67
2019-04-25T00:40:08.527Z,1001.65
2019-04-25T00:41:08.547Z,1001.71
2019-04-25T00:42:08.566Z,1001.71
2019-04-25T00:43:08.590Z,1001.77
2019-04-25T00:44:08.607Z,1001.77
2019-04-25T00:45:08.632Z,1001.84
2019-04-25T00:46:08.650Z,1001.83
2019-04-25T00:47:08.669Z,1001.86
2019-04-25T00:48:08.686Z,1001.80
2019-04-25T00:49:08.710Z,1001.82
2019-04-25T00:50:08.732Z,1001.85
2019-04-25T00:51:08.750Z,1001.78
2019-04-25T00:52:08.769Z,1001.83
2019-04-25T00:53:08.790Z,1001.88
2019-04-25T00:54:08.810Z,1001.85
2019-04-25T00:55:08.829Z,1001.86
2019-04-25T00:56:08.850Z,1001.86
2019-04-25T00:57:08.873Z,1001.84
2019-04-25T00:58:08.890Z,1001.85
2019-04-25T00:59:08.911Z,1001.82
2019-04-25T01:00:08.931Z,1001.81
2019-04-25T01:01:08.951Z,1001.85
2019-04-25T01:02:08.971Z,1001.82
2019-04-25T01:03:08.989Z,1001.85
2019-04-25T01:04:09.011Z,1001.84
2019-04-25T01:05:09.030Z,1001.80
2019-04-25T01:06:09.052Z,1001.84
2019-04-25T01:07:09.071Z,1001.82
2019-04-25T01:08:09.090Z,1001.83
2019-04-25T01:09:09.109Z,1001.78
2019-04-25T01:10:09.131Z,1001.74
2019-04-25T01:11:09.149Z,1001.77
2019-04-25T01:12:09.170Z,1001.80
2019-04-25T01:13:09.191Z,1001.84
2019-04-25T01:14:09.210Z,1001.91
2019-04-25T01:15:09.231Z,1001.96
2019-04-25T01:16:09.250Z,1002.02
2019-04-25T01:17:09.270Z,1002.02
2019-04-25T01:18:09.290Z,1002.01
2019-04-25T01:19:09.310Z,1001.99
2019-04-25T01:20:09.330Z,1002.08
2019-04-25T01:21:09.351Z,1002.09
2019-04-25T01:22:09.371Z,1002.12
2019-04-25T01:23:09.392Z,1002.12
2019-04-25T01:24:09.411Z,1002.10
2019-04-25T01:25:09.429Z,1002.12
2019-04-25T01:26:09.450Z,1002.15
2019-04-25T01:27:09.470Z,1002.11
2019-04-25T01:28:09.492Z,1002.16
2019-04-25T01:29:09.508Z,1002.17
2019-04-25T01:30:09.526Z,1002.06
2019-04-25T01:31:09.552Z,1002.05
2019-04-25T01:32:09.567Z,1002.06
2019-04-25T01:33:09.587Z,1002.10
2019-04-25T01:34:09.606Z,1002.08
2019-04-25T01:35:09.627Z,1002.01
2019-04-25T01:36:09.648Z,1002.02
2019-04-25T01:37:09.673Z,1001.97
2019-04-25T01:38:09.691Z,1001.94
2019-04-25T01:39:09.771Z,1001.91
2019-04-25T01:40:09.777Z,1001.92
2019-04-25T01:41:09.781Z,1001.98
2019-04-25T01:42:09.840Z,1002.00
2019-04-25T01:43:09.852Z,1002.02
2019-04-25T01:44:09.830Z,1002.08
2019-04-25T01:45:09.829Z,1002.06
2019-04-25T01:46:09.843Z,1002.05
2019-04-25T01:47:09.865Z,1002.10
2019-04-25T01:48:09.884Z,1002.10
2019-04-25T01:49:09.902Z,1002.08
2019-04-25T01:50:09.924Z,1002.11
2019-04-25T01:51:09.947Z,1002.12
2019-04-25T01:52:09.964Z,1002.09
2019-04-25T01:53:09.982Z,1002.10
2019-04-25T01:54:10.003Z,1002.10
2019-04-25T01:55:10.022Z,1002.09
2019-04-25T01:56:10.060Z,1002.13
2019-04-25T01:57:10.062Z,1002.05
2019-04-25T01:58:10.080Z,1002.12
2019-04-25T01:59:10.100Z,1002.16
2019-04-25T02:00:10.120Z,1002.20
2019-04-25T02:01:10.145Z,1002.14
2019-04-25T02:02:10.182Z,1002.08
2019-04-25T02:03:10.180Z,1002.11
2019-04-25T02:04:10.200Z,1002.08
2019-04-25T02:05:10.223Z,1002.06
2019-04-25T02:06:10.241Z,1002.10
2019-04-25T02:07:10.262Z,1002.10
2019-04-25T02:08:10.281Z,1002.12
2019-04-25T02:09:10.301Z,1002.13
2019-04-25T02:10:10.324Z,1002.14
2019-04-25T02:11:10.341Z,1002.17
2019-04-25T02:12:10.364Z,1002.19
2019-04-25T02:13:10.380Z,1002.14
2019-04-25T02:14:10.404Z,1002.11
2019-04-25T02:15:10.422Z,1002.12
2019-04-25T02:16:10.439Z,1002.12
2019-04-25T02:17:10.461Z,1002.21
2019-04-25T02:18:10.480Z,1002.26
2019-04-25T02:19:10.501Z,1002.30
2019-04-25T02:20:10.520Z,1002.46
2019-04-25T02:21:10.540Z,1002.44
2019-04-25T02:22:10.561Z,1002.57
2019-04-25T02:23:10.579Z,1002.64
2019-04-25T02:24:10.600Z,1002.68
2019-04-25T02:25:10.621Z,1002.73
2019-04-25T02:26:16.023Z,1002.76
2019-04-25T02:27:10.660Z,1002.80
2019-04-25T02:28:10.682Z,1002.82
2019-04-25T02:29:10.701Z,1002.84
2019-04-25T02:30:10.723Z,1002.87
2019-04-25T02:31:10.740Z,1002.95
2019-04-25T02:32:10.760Z,1002.98
2019-04-25T02:33:10.782Z,1002.97
2019-04-25T02:34:10.803Z,1003.00
2019-04-25T02:35:10.837Z,1003.02
2019-04-25T02:36:10.841Z,1003.01
2019-04-25T02:37:10.886Z,1003.03
2019-04-25T02:38:10.882Z,1003.05
2019-04-25T02:39:10.902Z,1003.08
2019-04-25T02:40:10.921Z,1003.11
2019-04-25T02:41:10.941Z,1003.11
2019-04-25T02:42:10.963Z,1003.05
2019-04-25T02:43:10.980Z,1003.12
2019-04-25T02:44:11.001Z,1003.13
2019-04-25T02:45:11.021Z,1003.18
2019-04-25T02:46:11.041Z,1003.20
2019-04-25T02:47:11.058Z,1003.20
2019-04-25T02:48:11.082Z,1003.19
2019-04-25T02:49:19.734Z,1003.19
2019-04-25T02:50:11.119Z,1003.25
2019-04-25T02:51:11.139Z,1003.22
2019-04-25T02:52:13.146Z,1003.19
2019-04-25T02:53:11.180Z,1003.16
2019-04-25T02:54:11.201Z,1003.14
2019-04-25T02:55:15.999Z,1003.18
2019-04-25T02:56:27.377Z,1003.21
2019-04-25T02:57:11.259Z,1003.18
2019-04-25T02:58:11.280Z,1003.22
2019-04-25T02:59:11.307Z,1003.18
2019-04-25T03:00:11.316Z,1003.19
2019-04-25T03:01:19.389Z,1003.20
2019-04-25T03:02:11.359Z,1003.21
2019-04-25T03:03:11.395Z,1003.21
2019-04-25T03:04:11.533Z,1003.20
2019-04-25T03:05:11.453Z,1003.22
2019-04-25T03:06:11.442Z,1003.22
2019-04-25T03:07:11.623Z,1003.21
2019-04-25T03:08:11.502Z,1003.27
2019-04-25T03:09:11.500Z,1003.27
2019-04-25T03:10:11.604Z,1003.30
2019-04-25T03:11:11.557Z,1003.26
2019-04-25T03:12:25.391Z,1003.28
2019-04-25T03:13:12.563Z,1003.24
2019-04-25T03:14:11.656Z,1003.27
2019-04-25T03:15:11.661Z,1003.23
2019-04-25T03:16:13.757Z,1003.21
2019-04-25T03:17:14.003Z,1003.25
2019-04-25T03:18:14.572Z,1003.31
2019-04-25T03:19:13.974Z,1003.38
2019-04-25T03:20:12.672Z,1003.38
2019-04-25T03:21:14.155Z,1003.38
2019-04-25T03:22:11.932Z,1003.34
2019-04-25T03:23:14.218Z,1003.35
2019-04-25T03:24:13.937Z,1003.33
2019-04-25T03:25:16.475Z,1003.33
2019-04-25T03:26:13.389Z,1003.35
2019-04-25T03:27:11.858Z,1003.35
2019-04-25T03:28:13.483Z,1003.38
2019-04-25T03:29:13.530Z,1003.38
2019-04-25T03:30:14.074Z,1003.37
2019-04-25T03:31:18.630Z,1003.44
2019-04-25T03:32:14.314Z,1003.40
2019-04-25T03:33:16.113Z,1003.42
2019-04-25T03:34:16.063Z,1003.45
2019-04-25T03:35:13.378Z,1003.47
2019-04-25T03:36:13.699Z,1003.47
2019-04-25T03:37:13.626Z,1003.49
2019-04-25T03:38:12.724Z,1003.55
2019-04-25T03:39:14.404Z,1003.56
2019-04-25T03:40:13.840Z,1003.58
2019-04-25T03:41:13.205Z,1003.52
2019-04-25T03:42:12.152Z,1003.50
2019-04-25T03:43:12.177Z,1003.50
2019-04-25T03:44:13.840Z,1003.53
2019-04-25T03:45:13.764Z,1003.52
2019-04-25T03:46:14.117Z,1003.56
2019-04-25T03:47:13.444Z,1003.62
2019-04-25T03:48:13.882Z,1003.68
2019-04-25T03:49:13.526Z,1003.70
2019-04-25T03:50:13.829Z,1003.69
2019-04-25T03:51:14.227Z,1003.73
2019-04-25T03:52:14.086Z,1003.68
2019-04-25T03:53:13.618Z,1003.75
2019-04-25T03:54:14.097Z,1003.79
2019-04-25T03:55:12.464Z,1003.82
2019-04-25T03:56:12.966Z,1003.82
2019-04-25T03:57:14.475Z,1003.87
2019-04-25T03:58:13.117Z,1003.87
2019-04-25T03:59:14.225Z,1003.96
2019-04-25T04:00:14.505Z,1003.97
2019-04-25T04:01:13.245Z,1003.98
2019-04-25T04:02:13.533Z,1004.00
2019-04-25T04:03:14.233Z,1004.03
2019-04-25T04:04:14.368Z,1004.10
2019-04-25T04:05:13.900Z,1004.10
2019-04-25T04:06:14.194Z,1004.13
2019-04-25T04:07:14.303Z,1004.23
2019-04-25T04:08:14.479Z,1004.27
2019-04-25T04:09:13.917Z,1004.26
2019-04-25T04:10:14.214Z,1004.33
2019-04-25T04:11:14.159Z,1004.36
2019-04-25T04:12:14.482Z,1004.36
2019-04-25T04:13:14.191Z,1004.43
2019-04-25T04:14:14.499Z,1004.49
2019-04-25T04:15:14.396Z,1004.49
2019-04-25T04:16:14.295Z,1004.52
2019-04-25T04:17:14.432Z,1004.53
2019-04-25T04:18:16.282Z,1004.53
2019-04-25T04:19:14.419Z,1004.56
2019-04-25T04:20:14.705Z,1004.56
2019-04-25T04:21:13.583Z,1004.52
2019-04-25T04:22:15.023Z,1004.55
2019-04-25T04:23:13.498Z,1004.50
2019-04-25T04:24:14.124Z,1004.51
2019-04-25T04:25:13.876Z,1004.50
2019-04-25T04:26:13.673Z,1004.54
2019-04-25T04:27:14.490Z,1004.55
2019-04-25T04:28:14.072Z,1004.56
2019-04-25T04:29:14.121Z,1004.58
2019-04-25T04:30:14.476Z,1004.60
2019-04-25T04:31:14.340Z,1004.64
2019-04-25T04:32:14.386Z,1004.70
2019-04-25T04:33:25.991Z,1004.73
2019-04-25T04:34:14.689Z,1004.72
2019-04-25T04:35:14.444Z,1004.74
2019-04-25T04:36:15.032Z,1004.75
2019-04-25T04:37:14.629Z,1004.73
2019-04-25T04:38:14.425Z,1004.77
2019-04-25T04:39:14.206Z,1004.79
2019-04-25T04:40:15.824Z,1004.81
2019-04-25T04:41:14.230Z,1004.83
2019-04-25T04:42:13.990Z,1004.82
2019-04-25T04:43:15.283Z,1004.85
2019-04-25T04:44:14.327Z,1004.87
2019-04-25T04:45:14.317Z,1004.88
2019-04-25T04:46:14.168Z,1004.92
2019-04-25T04:47:14.420Z,1004.94
2019-04-25T04:48:14.511Z,1004.97
2019-04-25T04:49:14.456Z,1005.02
2019-04-25T04:50:14.498Z,1005.02
2019-04-25T04:51:14.875Z,1005.02
2019-04-25T04:52:14.700Z,1005.08
2019-04-25T04:53:15.716Z,1005.04
2019-04-25T04:54:14.366Z,1005.11
2019-04-25T04:55:15.761Z,1005.11
2019-04-25T04:56:15.056Z,1005.12
2019-04-25T04:57:22.105Z,1005.14
2019-04-25T04:58:15.038Z,1005.18
2019-04-25T04:59:14.640Z,1005.19
2019-04-25T05:00:14.590Z,1005.21
2019-04-25T05:01:14.777Z,1005.21
2019-04-25T05:02:15.789Z,1005.23
2019-04-25T05:03:14.889Z,1005.22
2019-04-25T05:04:14.937Z,1005.23
2019-04-25T05:05:14.565Z,1005.22
2019-04-25T05:06:15.012Z,1005.23
2019-04-25T05:07:14.973Z,1005.27
2019-04-25T05:08:14.991Z,1005.30
2019-04-25T05:09:15.200Z,1005.32
2019-04-25T05:10:16.522Z,1005.33
2019-04-25T05:11:15.441Z,1005.36
2019-04-25T05:12:15.251Z,1005.36
2019-04-25T05:13:15.248Z,1005.36
2019-04-25T05:14:14.905Z,1005.35
2019-04-25T05:15:15.322Z,1005.41
2019-04-25T05:16:15.066Z,1005.43
2019-04-25T05:17:15.166Z,1005.46
2019-04-25T05:18:15.624Z,1005.48
2019-04-25T05:19:15.477Z,1005.52
2019-04-25T05:20:16.015Z,1005.50
2019-04-25T05:21:15.694Z,1005.57
2019-04-25T05:22:14.919Z,1005.59
2019-04-25T05:23:15.086Z,1005.58
2019-04-25T05:24:16.008Z,1005.61
2019-04-25T05:25:16.260Z,1005.65
2019-04-25T05:26:15.929Z,1005.66
2019-04-25T05:27:15.380Z,1005.65
2019-04-25T05:28:16.170Z,1005.67
2019-04-25T05:29:17.478Z,1005.71
2019-04-25T05:30:15.716Z,1005.76
2019-04-25T05:31:15.749Z,1005.78
2019-04-25T05:32:15.776Z,1005.71
2019-04-25T05:33:17.591Z,1005.79
2019-04-25T05:34:15.722Z,1005.76
2019-04-25T05:35:15.016Z,1005.78
2019-04-25T05:36:15.488Z,1005.83
2019-04-25T05:37:15.151Z,1005.79
2019-04-25T05:38:15.096Z,1005.83
2019-04-25T05:39:16.711Z,1005.82
2019-04-25T05:40:15.816Z,1005.93
2019-04-25T05:41:15.654Z,1005.92
2019-04-25T05:42:16.277Z,1005.93
2019-04-25T05:43:15.085Z,1005.93
2019-04-25T05:44:15.705Z,1006.00
2019-04-25T05:45:16.030Z,1006.09
2019-04-25T05:46:15.293Z,1006.03
2019-04-25T05:47:15.898Z,1005.99
2019-04-25T05:48:15.964Z,1006.03
2019-04-25T05:49:15.492Z,1006.04
2019-04-25T05:50:15.639Z,1006.10
2019-04-25T05:51:15.778Z,1006.09
2019-04-25T05:52:15.970Z,1006.10
2019-04-25T05:53:16.164Z,1006.11
2019-04-25T05:54:14.740Z,1006.08
2019-04-25T05:55:17.542Z,1006.09
2019-04-25T05:56:14.780Z,1006.05
2019-04-25T05:57:14.800Z,1006.06
2019-04-25T05:58:14.821Z,1006.10
2019-04-25T05:59:14.841Z,1006.15
2019-04-25T06:00:15.149Z,1006.14
2019-04-25T06:01:14.887Z,1006.23
2019-04-25T06:02:14.905Z,1006.31
2019-04-25T06:03:14.926Z,1006.30
2019-04-25T06:04:14.945Z,1006.37
2019-04-25T06:05:14.967Z,1006.36
2019-04-25T06:06:14.990Z,1006.42
2019-04-25T06:07:15.008Z,1006.39
2019-04-25T06:08:15.033Z,1006.39
2019-04-25T06:09:15.052Z,1006.40
2019-04-25T06:10:15.080Z,1006.39
2019-04-25T06:11:15.094Z,1006.33
2019-04-25T06:12:15.115Z,1006.38
2019-04-25T06:13:15.138Z,1006.35
2019-04-25T06:14:15.157Z,1006.41
2019-04-25T06:15:15.179Z,1006.40
2019-04-25T06:16:15.200Z,1006.40
2019-04-25T06:17:15.244Z,1006.38
2019-04-25T06:18:15.243Z,1006.39
2019-04-25T06:19:18.525Z,1006.47
2019-04-25T06:20:15.285Z,1006.50
2019-04-25T06:21:15.308Z,1006.48
2019-04-25T06:22:15.329Z,1006.59
2019-04-25T06:23:15.415Z,1006.60
2019-04-25T06:24:15.425Z,1006.59
2019-04-25T06:25:16.367Z,1006.64
2019-04-25T06:26:23.049Z,1006.66
2019-04-25T06:27:15.491Z,1006.73
2019-04-25T06:28:15.485Z,1006.73
2019-04-25T06:29:15.481Z,1006.78
2019-04-25T06:30:15.789Z,1006.73
2019-04-25T06:31:15.524Z,1006.71
2019-04-25T06:32:15.544Z,1006.67
2019-04-25T06:33:15.630Z,1006.68
2019-04-25T06:34:15.587Z,1006.71
2019-04-25T06:35:15.611Z,1006.67
2019-04-25T06:36:15.634Z,1006.66
2019-04-25T06:37:15.656Z,1006.63
2019-04-25T06:38:15.678Z,1006.65
2019-04-25T06:39:15.701Z,1006.62
2019-04-25T06:40:15.724Z,1006.61
2019-04-25T06:41:15.747Z,1006.62
2019-04-25T06:42:15.771Z,1006.62
2019-04-25T06:43:15.791Z,1006.58
2019-04-25T06:44:15.815Z,1006.57
2019-04-25T06:45:15.846Z,1006.58
2019-04-25T06:46:15.858Z,1006.61
2019-04-25T06:47:15.892Z,1006.65
2019-04-25T06:48:15.908Z,1006.69
2019-04-25T06:49:15.930Z,1006.67
2019-04-25T06:50:15.954Z,1006.73
2019-04-25T06:51:15.988Z,1006.73
2019-04-25T06:52:16.002Z,1006.76
2019-04-25T06:53:16.025Z,1006.69
2019-04-25T06:54:16.050Z,1006.75
2019-04-25T06:55:16.077Z,1006.74
2019-04-25T06:56:16.100Z,1006.75
2019-04-25T06:57:16.126Z,1006.76
2019-04-25T06:58:16.151Z,1006.84
2019-04-25T06:59:16.173Z,1006.91
2019-04-25T07:00:16.194Z,1006.89
2019-04-25T07:01:16.221Z,1006.92
2019-04-25T07:02:16.241Z,1006.93
2019-04-25T07:03:16.268Z,1006.96
2019-04-25T07:04:16.290Z,1006.93
2019-04-25T07:05:26.428Z,1006.88
2019-04-25T07:06:16.368Z,1006.84
2019-04-25T07:07:16.369Z,1006.88
2019-04-25T07:08:16.388Z,1006.85
2019-04-25T07:09:16.415Z,1006.90
2019-04-25T07:10:16.444Z,1006.86
2019-04-25T07:11:16.465Z,1006.93
2019-04-25T07:12:16.494Z,1006.96
2019-04-25T07:13:16.518Z,1006.93
2019-04-25T07:14:16.546Z,1007.00
2019-04-25T07:15:16.570Z,1006.96
2019-04-25T07:16:16.595Z,1007.05
2019-04-25T07:17:16.622Z,1007.01
2019-04-25T07:18:16.649Z,1007.05
2019-04-25T07:19:17.624Z,1007.02
2019-04-25T07:20:16.699Z,1006.99
2019-04-25T07:21:16.725Z,1006.97
2019-04-25T07:22:16.753Z,1007.00
2019-04-25T07:23:16.784Z,1007.00
2019-04-25T07:24:17.566Z,1007.04
2019-04-25T07:25:16.832Z,1007.02
2019-04-25T07:26:16.862Z,1007.03
2019-04-25T07:27:16.887Z,1007.03
2019-04-25T07:28:24.118Z,1007.07
2019-04-25T07:29:16.940Z,1007.06
2019-04-25T07:30:26.862Z,1007.08
2019-04-25T07:31:16.994Z,1007.09
2019-04-25T07:32:17.021Z,1007.11
2019-04-25T07:33:17.048Z,1007.13
2019-04-25T07:34:17.075Z,1007.18
2019-04-25T07:35:17.101Z,1007.19
2019-04-25T07:36:17.131Z,1007.21
2019-04-25T07:37:17.157Z,1007.22
2019-04-25T07:38:17.184Z,1007.21
2019-04-25T07:39:17.231Z,1007.22
2019-04-25T07:40:17.244Z,1007.26
2019-04-25T07:41:17.351Z,1007.23
2019-04-25T07:42:17.337Z,1007.21
2019-04-25T07:43:17.377Z,1007.18
2019-04-25T07:44:17.519Z,1007.18
2019-04-25T07:45:17.430Z,1007.21
2019-04-25T07:46:17.406Z,1007.23
2019-04-25T07:47:17.434Z,1007.23
2019-04-25T07:48:17.469Z,1007.21
2019-04-25T07:49:17.491Z,1007.21
2019-04-25T07:50:17.518Z,1007.26
2019-04-25T07:51:17.547Z,1007.27
2019-04-25T07:52:17.575Z,1007.26
2019-04-25T07:53:17.605Z,1007.26
2019-04-25T07:54:17.635Z,1007.24
2019-04-25T07:55:17.661Z,1007.24
2019-04-25T07:56:17.690Z,1007.25
2019-04-25T07:57:17.718Z,1007.24
2019-04-25T07:58:17.749Z,1007.27
2019-04-25T07:59:17.776Z,1007.28
2019-04-25T08:00:17.805Z,1007.27
2019-04-25T08:01:17.835Z,1007.28
2019-04-25T08:02:17.864Z,1007.28
2019-04-25T08:03:17.960Z,1007.26
2019-04-25T08:04:17.922Z,1007.27
2019-04-25T08:05:17.950Z,1007.28
2019-04-25T08:06:17.982Z,1007.24
2019-04-25T08:07:18.009Z,1007.22
2019-04-25T08:08:18.039Z,1007.22
2019-04-25T08:09:18.067Z,1007.21
2019-04-25T08:10:18.100Z,1007.25
2019-04-25T08:11:18.126Z,1007.23
2019-04-25T08:12:18.152Z,1007.20
2019-04-25T08:13:18.179Z,1007.24
2019-04-25T08:14:18.206Z,1007.22
2019-04-25T08:15:18.245Z,1007.23
2019-04-25T08:16:18.261Z,1007.26
2019-04-25T08:17:18.289Z,1007.30
2019-04-25T08:18:18.315Z,1007.34
2019-04-25T08:19:18.340Z,1007.31
2019-04-25T08:20:18.368Z,1007.31
2019-04-25T08:21:18.395Z,1007.32
2019-04-25T08:22:18.422Z,1007.36
2019-04-25T08:23:18.446Z,1007.33
2019-04-25T08:24:18.471Z,1007.39
2019-04-25T08:25:18.499Z,1007.42
2019-04-25T08:26:18.523Z,1007.39
2019-04-25T08:28:18.573Z,1007.42
2019-04-25T08:29:18.599Z,1007.40
2019-04-25T08:30:18.628Z,1007.42
2019-04-25T08:31:18.652Z,1007.45
2019-04-25T08:32:18.677Z,1007.42
2019-04-25T08:33:18.697Z,1007.46
2019-04-25T08:34:18.722Z,1007.46
2019-04-25T08:35:18.744Z,1007.50
2019-04-25T08:36:18.771Z,1007.51
2019-04-25T08:37:21.050Z,1007.47
2019-04-25T08:38:18.820Z,1007.51
2019-04-25T08:39:18.846Z,1007.53
2019-04-25T08:40:18.869Z,1007.50
2019-04-25T08:41:21.476Z,1007.47
2019-04-25T08:42:18.915Z,1007.47
2019-04-25T08:43:18.940Z,1007.47
2019-04-25T08:44:18.963Z,1007.44
2019-04-25T08:45:18.989Z,1007.49
2019-04-25T08:46:19.013Z,1007.57
2019-04-25T08:47:19.038Z,1007.56
2019-04-25T08:48:19.061Z,1007.58
2019-04-25T08:49:19.083Z,1007.59
2019-04-25T08:50:28.775Z,1007.57
2019-04-25T08:51:19.129Z,1007.55
2019-04-25T08:52:19.169Z,1007.59
2019-04-25T08:53:19.240Z,1007.51
2019-04-25T08:54:19.239Z,1007.54
2019-04-25T08:55:19.295Z,1007.60
2019-04-25T08:56:19.302Z,1007.58
2019-04-25T08:57:19.297Z,1007.57
2019-04-25T08:58:19.313Z,1007.57
2019-04-25T08:59:26.843Z,1007.56
2019-04-25T09:00:19.341Z,1007.55
2019-04-25T09:01:19.367Z,1007.61
2019-04-25T09:02:19.385Z,1007.55
2019-04-25T09:03:19.410Z,1007.62
2019-04-25T09:04:19.438Z,1007.61
2019-04-25T09:05:19.459Z,1007.67
2019-04-25T09:06:19.483Z,1007.58
2019-04-25T09:07:19.504Z,1007.64
2019-04-25T09:08:19.526Z,1007.62
2019-04-25T09:09:19.552Z,1007.56
2019-04-25T09:10:19.573Z,1007.57
2019-04-25T09:11:19.598Z,1007.57
2019-04-25T09:12:19.621Z,1007.58
2019-04-25T09:13:19.642Z,1007.54
2019-04-25T09:14:19.666Z,1007.52
2019-04-25T09:15:19.690Z,1007.52
2019-04-25T09:16:19.711Z,1007.53
2019-04-25T09:17:19.733Z,1007.52
2019-04-25T09:18:19.759Z,1007.51
2019-04-25T09:19:19.783Z,1007.47
2019-04-25T09:20:19.804Z,1007.49
2019-04-25T09:21:19.830Z,1007.48
2019-04-25T09:22:19.851Z,1007.48
2019-04-25T09:23:19.876Z,1007.47
2019-04-25T09:24:19.899Z,1007.51
2019-04-25T09:25:19.925Z,1007.51
2019-04-25T09:26:19.945Z,1007.54
2019-04-25T09:27:19.970Z,1007.56
2019-04-25T09:28:19.992Z,1007.62
2019-04-25T09:29:20.136Z,1007.61
2019-04-25T09:30:20.040Z,1007.60
2019-04-25T09:31:20.064Z,1007.61
2019-04-25T09:32:20.095Z,1007.54
2019-04-25T09:33:20.109Z,1007.59
2019-04-25T09:34:20.133Z,1007.53
2019-04-25T09:35:20.262Z,1007.54
2019-04-25T09:36:20.180Z,1007.58
2019-04-25T09:37:20.209Z,1007.61
2019-04-25T09:38:20.235Z,1007.60
2019-04-25T09:39:20.255Z,1007.60
2019-04-25T09:40:20.276Z,1007.63
2019-04-25T09:41:20.304Z,1007.55
2019-04-25T09:42:20.325Z,1007.57
2019-04-25T09:43:20.350Z,1007.58
2019-04-25T09:44:20.373Z,1007.61
2019-04-25T09:45:20.399Z,1007.65
2019-04-25T09:46:20.422Z,1007.63
2019-04-25T09:47:20.447Z,1007.61
2019-04-25T09:48:20.471Z,1007.60
2019-04-25T09:49:20.495Z,1007.57
2019-04-25T09:50:20.521Z,1007.59
2019-04-25T09:51:20.544Z,1007.55
2019-04-25T09:52:20.570Z,1007.56
2019-04-25T09:53:23.560Z,1007.47
2019-04-25T09:54:20.615Z,1007.47
2019-04-25T09:55:20.640Z,1007.46
2019-04-25T09:56:20.665Z,1007.40
2019-04-25T09:57:20.689Z,1007.37
2019-04-25T09:58:20.713Z,1007.37
2019-04-25T09:59:27.198Z,1007.36
2019-04-25T10:00:20.763Z,1007.35
2019-04-25T10:01:20.789Z,1007.34
2019-04-25T10:02:20.810Z,1007.34
2019-04-25T10:03:20.836Z,1007.32
2019-04-25T10:04:22.877Z,1007.28
2019-04-25T10:05:20.886Z,1007.24
2019-04-25T10:06:20.912Z,1007.29
2019-04-25T10:07:20.937Z,1007.27
2019-04-25T10:08:20.960Z,1007.26
2019-04-25T10:09:20.988Z,1007.31
2019-04-25T10:10:21.015Z,1007.28
2019-04-25T10:11:21.040Z,1007.35
2019-04-25T10:12:21.147Z,1007.31
2019-04-25T10:13:21.146Z,1007.29
2019-04-25T10:14:21.141Z,1007.32
2019-04-25T10:15:21.210Z,1007.34
2019-04-25T10:16:21.220Z,1007.30
2019-04-25T10:17:21.204Z,1007.31
2019-04-25T10:18:21.239Z,1007.38
2019-04-25T10:19:21.261Z,1007.40
2019-04-25T10:20:21.293Z,1007.38
2019-04-25T10:21:21.313Z,1007.34
2019-04-25T10:22:21.342Z,1007.38
2019-04-25T10:23:21.370Z,1007.38
2019-04-25T10:24:21.399Z,1007.33
2019-04-25T10:25:21.428Z,1007.38
2019-04-25T10:26:21.459Z,1007.38
2019-04-25T10:27:21.490Z,1007.29
2019-04-25T10:28:23.215Z,1007.29
2019-04-25T10:29:21.553Z,1007.23
2019-04-25T10:30:23.783Z,1007.25
2019-04-25T10:31:21.617Z,1007.19
2019-04-25T10:32:23.646Z,1007.18
2019-04-25T10:33:21.682Z,1007.07
2019-04-25T10:34:21.713Z,1007.09
2019-04-25T10:35:21.748Z,1007.06
2019-04-25T10:36:23.256Z,1007.04
2019-04-25T10:37:21.816Z,1007.06
2019-04-25T10:38:21.848Z,1007.04
2019-04-25T10:39:21.953Z,1007.13
2019-04-25T10:40:23.417Z,1007.06
2019-04-25T10:41:21.957Z,1007.06
2019-04-25T10:42:23.752Z,1007.04
2019-04-25T10:43:23.874Z,1007.05
2019-04-25T10:44:22.063Z,1006.99
2019-04-25T10:45:25.458Z,1006.99
2019-04-25T10:46:22.137Z,1006.95
2019-04-25T10:47:22.175Z,1006.98
2019-04-25T10:48:23.926Z,1006.99
2019-04-25T10:49:23.543Z,1006.98
2019-04-25T10:50:23.721Z,1006.93
2019-04-25T10:51:23.864Z,1006.94
2019-04-25T10:52:23.335Z,1006.96
2019-04-25T10:53:23.468Z,1006.94
2019-04-25T10:54:22.436Z,1006.90
2019-04-25T10:55:23.371Z,1006.92
2019-04-25T10:56:24.164Z,1006.95
2019-04-25T10:57:22.553Z,1006.92
2019-04-25T10:58:22.592Z,1006.88
2019-04-25T10:59:23.619Z,1006.90
2019-04-25T11:00:24.051Z,1006.91
2019-04-25T11:01:24.337Z,1006.86
2019-04-25T11:02:23.607Z,1006.91
2019-04-25T11:03:24.171Z,1006.91
2019-04-25T11:04:22.825Z,1006.93
2019-04-25T11:05:23.958Z,1006.90
2019-04-25T11:06:23.307Z,1006.90
2019-04-25T11:07:23.467Z,1006.89
2019-04-25T11:08:24.374Z,1006.88
2019-04-25T11:09:24.178Z,1006.86
2019-04-25T11:10:23.595Z,1006.84
2019-04-25T11:11:24.106Z,1006.84
2019-04-25T11:12:23.500Z,1006.81
2019-04-25T11:13:23.183Z,1006.81
2019-04-25T11:14:23.895Z,1006.77
2019-04-25T11:15:23.445Z,1006.79
2019-04-25T11:16:24.214Z,1006.75
2019-04-25T11:17:24.245Z,1006.76
2019-04-25T11:18:23.887Z,1006.77
2019-04-25T11:19:23.900Z,1006.75
2019-04-25T11:20:23.466Z,1006.77
2019-04-25T11:21:24.287Z,1006.79
2019-04-25T11:22:23.975Z,1006.80
2019-04-25T11:23:23.590Z,1006.79
2019-04-25T11:24:23.829Z,1006.79
2019-04-25T11:25:24.034Z,1006.78
2019-04-25T11:26:23.711Z,1006.79
2019-04-25T11:27:23.970Z,1006.76
2019-04-25T11:28:23.793Z,1006.81
2019-04-25T11:29:24.076Z,1006.76
2019-04-25T11:30:23.876Z,1006.74
2019-04-25T11:31:23.918Z,1006.77
2019-04-25T11:32:23.964Z,1006.77
2019-04-25T11:33:24.684Z,1006.83
2019-04-25T11:34:24.043Z,1006.83
2019-04-25T11:35:24.225Z,1006.76
2019-04-25T11:36:24.975Z,1006.79
2019-04-25T11:37:24.164Z,1006.78
2019-04-25T11:38:24.208Z,1006.72
2019-04-25T11:39:24.250Z,1006.71
2019-04-25T11:40:24.291Z,1006.73
2019-04-25T11:41:24.379Z,1006.70
2019-04-25T11:42:24.372Z,1006.71
2019-04-25T11:43:24.415Z,1006.68
2019-04-25T11:44:24.592Z,1006.67
2019-04-25T11:45:24.499Z,1006.64
2019-04-25T11:46:24.539Z,1006.61
2019-04-25T11:47:24.581Z,1006.61
2019-04-25T11:48:24.629Z,1006.59
2019-04-25T11:49:24.678Z,1006.59
2019-04-25T11:50:24.708Z,1006.59
2019-04-25T11:51:24.751Z,1006.60
2019-04-25T11:52:28.121Z,1006.63
2019-04-25T11:53:25.008Z,1006.64
2019-04-25T11:54:24.875Z,1006.65
2019-04-25T11:55:24.923Z,1006.70
2019-04-25T11:56:25.015Z,1006.71
2019-04-25T11:57:25.029Z,1006.71
2019-04-25T11:58:25.104Z,1006.71
2019-04-25T11:59:25.086Z,1006.68
2019-04-25T12:00:25.127Z,1006.69
2019-04-25T12:01:25.169Z,1006.71
2019-04-25T12:02:25.211Z,1006.66
2019-04-25T12:03:25.255Z,1006.68
2019-04-25T12:04:25.296Z,1006.65
2019-04-25T12:05:25.337Z,1006.66
2019-04-25T12:06:25.379Z,1006.64